Monday, June 18, 2018, 8:57 PM EDT
Back to Local

KHFD, Hartford-brainard Airport

Location: Hartford, CT, United States Lat: 41.733
Local Time: 8:57 PM EDT ( 0:57 GMT) Lon: -72.65
Time Zone: US/Eastern Elev: 19 ft

Show me the last for .
Show Decoded

2018-06-18 20:38 METAR KHFD 190038Z 20015G22KT 2 1/2SM TSRA FEW017 SCT045 BKN110 25/19 A2977 RMK
                 AO2 LTG DSNT NW-NE RAB32 TSB32 P0000 T02500194 =
2018-06-18 20:31 METAR KHFD 190031Z 20007KT 10SM VCTS FEW090 FEW110 26/19 A2976 RMK AO2 LTG DSNT
                 NW-NE T02610189 =
2018-06-18 19:53 METAR KHFD 182353Z 19011KT 10SM SCT080 27/19 A2973 RMK AO2 LTG DSNT NE AND W
                 PRESFR SLP067 T02670189 10328 20267 58020 =
2018-06-18 18:53 METAR KHFD 182253Z 18015G24KT 10SM CLR 28/19 A2976 RMK AO2 SLP077 T02780194 =
2018-06-18 17:53 METAR KHFD 182153Z 20013G21KT 10SM CLR 28/20 A2976 RMK AO2 SLP077 T02830200 =
2018-06-18 16:53 METAR KHFD 182053Z 19014G25KT 10SM CLR 30/21 A2979 RMK AO2 SLP086 T03000206
                 58020 =
2018-06-18 15:53 METAR KHFD 181953Z 20014G20KT 10SM CLR 31/21 A2980 RMK AO2 SLP092 T03110211 =
2018-06-18 14:53 METAR KHFD 181853Z 19014G22KT 10SM CLR 32/22 A2983 RMK AO2 SLP102 T03170217 =
2018-06-18 13:53 METAR KHFD 181753Z 18014G17KT 10SM CLR 32/22 A2985 RMK AO2 SLP107 T03220217
                 10322 20222 58029 =
2018-06-18 12:53 METAR KHFD 181653Z 19012KT 10SM CLR 32/22 A2988 RMK AO2 SLP119 T03170217 =
2018-06-18 11:53 METAR KHFD 181553Z 18010G17KT 10SM CLR 30/21 A2991 RMK AO2 SLP128 T03000206 =
2018-06-18 10:53 METAR KHFD 181453Z 21009KT 8SM CLR 28/20 A2993 RMK AO2 SLP136 T02780200 58019 =
2018-06-18 09:53 METAR KHFD 181353Z 20009G15KT 10SM CLR 27/19 A2995 RMK AO2 SLP143 T02670194 =
2018-06-18 08:53 METAR KHFD 181253Z 20009KT 10SM CLR 25/18 A2997 RMK AO2 SLP150 T02500183 =
2018-06-18 07:53 METAR KHFD 181153Z 19006KT 10SM CLR 22/18 A2999 RMK AO2 SLP155 T02220178 10222
                 20189 58008 $ =
2018-06-18 06:53 METAR KHFD 181053Z 18008KT 10SM CLR 21/17 A3000 RMK AO2 SLP158 T02060167 $ =
2018-06-18 05:53 METAR KHFD 180953Z 18006KT 10SM CLR 20/16 A3001 RMK AO2 SLP163 T02000161 $ =
2018-06-18 04:53 METAR KHFD 180853Z AUTO 19006KT 10SM CLR 20/16 A3001 RMK AO2 SLP163 T02000156
                 56008 PWINO $ =
2018-06-18 03:53 METAR KHFD 180753Z AUTO 17003KT 10SM CLR 19/16 A3002 RMK AO2 SLP166 T01940156
                 PWINO $ =
2018-06-18 02:53 METAR KHFD 180653Z AUTO 17005KT 10SM CLR 19/15 A3003 RMK AO2 SLP169 T01940150
                 PWINO $ =
2018-06-18 01:53 METAR KHFD 180553Z AUTO 17005KT 10SM CLR 20/15 A3004 RMK AO2 SLP172 T02000150
                 10261 20200 58001 PWINO $ =
2018-06-18 00:53 METAR KHFD 180453Z AUTO 17004KT 10SM CLR 21/14 A3005 RMK AO2 SLP175 T02060139
                 403220133 PWINO $ =
2018-06-17 23:53 METAR KHFD 180353Z 17004KT 10SM CLR 21/13 A3004 RMK AO2 SLP173 T02060133 $ =
2018-06-17 22:53 METAR KHFD 180253Z 19005KT 10SM CLR 22/13 A3004 RMK AO2 SLP173 T02220133 53001 $
                 =
2018-06-17 21:53 METAR KHFD 180153Z 18006KT 10SM CLR 23/14 A3005 RMK AO2 SLP174 T02330139 $ =

Support USWX by starting your Amazon purchase here.